Time;durP1;ratioP1;P1;durP2;ratioP2;P2;SDS_P1;SDS_P2;PMS_P1;PMS_P2;Temp;Humidity;BMP_temperature;BMP_pressure;BME280_temperature;BME280_humidity;BME280_pressure;Samples;Min_cycle;Max_cycle;Signal;HPM_P1;HPM_P2
2023/04/30 00:01:20;;;;;;;14.93;8.50;;;;;;;;;;4976655;28;25113;-76
2023/04/30 00:03:46;;;;;;;16.33;8.35;;;;;;;;;;4980041;28;25087;-78
2023/04/30 00:06:11;;;;;;;16.58;9.60;;;;;;;;;;4974350;28;25079;-75
2023/04/30 00:08:37;;;;;;;15.85;8.60;;;;;;;;;;4996907;28;25074;-76
2023/04/30 00:11:03;;;;;;;14.38;8.90;;;;;;;;;;4977096;28;25067;-76
2023/04/30 00:13:29;;;;;;;21.85;9.05;;;;;;;;;;4973646;28;25072;-76
2023/04/30 00:15:55;;;;;;;19.25;9.50;;;;;;;;;;4976514;28;25067;-77
2023/04/30 00:18:22;;;;;;;18.65;9.32;;;;;;;;;;4975432;28;25097;-76
2023/04/30 00:20:47;;;;;;;16.70;7.85;;;;;;;;;;4980836;28;25088;-76
2023/04/30 00:23:14;;;;;;;18.60;10.25;;;;;;;;;;4984963;28;25075;-76
2023/04/30 00:25:40;;;;;;;15.63;9.50;;;;;;;;;;4976164;28;25138;-75
2023/04/30 00:28:05;;;;;;;17.45;9.55;;;;;;;;;;4978727;28;25067;-76
2023/04/30 00:30:31;;;;;;;16.55;9.27;;;;;;;;;;4975455;28;25054;-75
2023/04/30 00:32:57;;;;;;;23.02;9.77;;;;;;;;;;4970499;28;25107;-75
2023/04/30 00:35:23;;;;;;;20.92;9.00;;;;;;;;;;4980381;28;25075;-75
2023/04/30 00:37:49;;;;;;;19.90;8.75;;;;;;;;;;4982350;28;25060;-78
2023/04/30 00:40:15;;;;;;;19.33;9.35;;;;;;;;;;4978271;28;25078;-74
2023/04/30 00:42:41;;;;;;;22.45;9.82;;;;;;;;;;4983864;28;25086;-75
2023/04/30 00:45:08;;;;;;;21.30;10.40;;;;;;;;;;4975307;28;25076;-77
2023/04/30 00:47:35;;;;;;;17.70;9.32;;;;;;;;;;4976649;28;25057;-77
2023/04/30 00:50:01;;;;;;;19.38;9.95;;;;;;;;;;4975442;28;25108;-76
2023/04/30 00:52:27;;;;;;;22.15;9.70;;;;;;;;;;4975449;28;25156;-75
2023/04/30 00:54:53;;;;;;;17.77;10.57;;;;;;;;;;4989617;28;25093;-75
2023/04/30 00:57:19;;;;;;;18.60;9.85;;;;;;;;;;4985696;28;25080;-76
2023/04/30 00:59:46;;;;;;;21.35;10.18;;;;;;;;;;4980383;28;25145;-75
2023/04/30 01:02:12;;;;;;;19.00;11.07;;;;;;;;;;4992324;28;25096;-74
2023/04/30 01:04:38;;;;;;;19.60;9.68;;;;;;;;;;4983924;28;25058;-76
2023/04/30 01:07:05;;;;;;;19.00;9.43;;;;;;;;;;4979741;28;25124;-76
2023/04/30 01:09:31;;;;;;;21.83;11.00;;;;;;;;;;4981182;28;25053;-77
2023/04/30 01:12:06;;;;;;;20.00;10.07;;;;;;;;;;4980721;28;25155;-76
2023/04/30 01:14:51;;;;;;;20.67;11.18;;;;;;;;;;4974877;28;25072;-75
2023/04/30 01:17:21;;;;;;;18.65;10.10;;;;;;;;;;4976376;28;25066;-76
2023/04/30 01:19:47;;;;;;;17.85;9.88;;;;;;;;;;4977398;28;25085;-78
2023/04/30 01:22:31;;;;;;;21.65;10.60;;;;;;;;;;4975932;28;25071;-76
2023/04/30 01:25:06;;;;;;;19.92;10.75;;;;;;;;;;4974235;28;25180;-75
2023/04/30 01:27:51;;;;;;;17.77;9.80;;;;;;;;;;4974819;28;25101;-74
2023/04/30 01:30:18;;;;;;;16.20;9.93;;;;;;;;;;4967242;28;25159;-76
2023/04/30 01:32:44;;;;;;;20.58;10.60;;;;;;;;;;4977119;28;25108;-77
2023/04/30 01:35:10;;;;;;;16.05;9.00;;;;;;;;;;4981362;28;25089;-77
2023/04/30 01:37:54;;;;;;;19.77;10.57;;;;;;;;;;4976102;28;25172;-77
2023/04/30 01:40:25;;;;;;;22.23;9.90;;;;;;;;;;4971520;28;25065;-75
2023/04/30 01:43:10;;;;;;;18.95;9.90;;;;;;;;;;4990670;28;25186;-77
2023/04/30 01:45:42;;;;;;;20.52;9.73;;;;;;;;;;4974697;28;25097;-75
2023/04/30 01:48:19;;;;;;;18.48;9.80;;;;;;;;;;4964734;28;25054;-76
2023/04/30 01:50:50;;;;;;;18.15;9.25;;;;;;;;;;4975842;28;25085;-76
2023/04/30 01:53:19;;;;;;;20.30;9.93;;;;;;;;;;4974370;28;25098;-75
2023/04/30 01:55:57;;;;;;;18.88;9.05;;;;;;;;;;4989168;28;25086;-76
2023/04/30 01:58:23;;;;;;;20.48;9.65;;;;;;;;;;4965026;28;25055;-76
2023/04/30 02:00:50;;;;;;;19.02;9.75;;;;;;;;;;4985079;28;25066;-76
2023/04/30 02:03:16;;;;;;;15.77;9.07;;;;;;;;;;4978348;28;25099;-78
2023/04/30 02:05:42;;;;;;;18.05;10.18;;;;;;;;;;4971600;28;25094;-77
2023/04/30 02:08:08;;;;;;;17.75;11.02;;;;;;;;;;4975948;28;25065;-76
2023/04/30 02:10:34;;;;;;;22.55;11.20;;;;;;;;;;4974193;28;25055;-77
2023/04/30 02:13:00;;;;;;;27.58;11.95;;;;;;;;;;4975628;28;25069;-76
2023/04/30 02:15:26;;;;;;;20.02;12.20;;;;;;;;;;4979315;28;25059;-76
2023/04/30 02:17:52;;;;;;;29.60;13.63;;;;;;;;;;4984737;28;25059;-76
2023/04/30 02:20:18;;;;;;;25.08;12.82;;;;;;;;;;4975489;28;25073;-76
2023/04/30 02:22:44;;;;;;;24.25;11.63;;;;;;;;;;4976115;28;25064;-77
2023/04/30 02:25:11;;;;;;;25.42;11.63;;;;;;;;;;4983320;28;25070;-76
2023/04/30 02:27:38;;;;;;;23.65;12.65;;;;;;;;;;4991396;28;25091;-76
2023/04/30 02:30:04;;;;;;;22.25;12.05;;;;;;;;;;4989166;28;25064;-75
2023/04/30 02:32:30;;;;;;;22.05;11.73;;;;;;;;;;4991217;28;25077;-76
2023/04/30 02:34:56;;;;;;;24.10;11.98;;;;;;;;;;4977498;28;25053;-76
2023/04/30 02:37:22;;;;;;;24.10;12.27;;;;;;;;;;4976803;28;25121;-76
2023/04/30 02:39:48;;;;;;;24.10;11.57;;;;;;;;;;4994878;28;25066;-78
2023/04/30 02:42:14;;;;;;;23.70;12.23;;;;;;;;;;4995674;28;25154;-76
2023/04/30 02:44:40;;;;;;;27.42;13.38;;;;;;;;;;4993448;28;25163;-76
2023/04/30 02:47:06;;;;;;;22.27;11.93;;;;;;;;;;4990490;28;25164;-75
2023/04/30 02:49:32;;;;;;;23.33;12.60;;;;;;;;;;4968308;28;25059;-77
2023/04/30 02:51:58;;;;;;;23.60;12.63;;;;;;;;;;4980904;28;25101;-76
2023/04/30 02:54:24;;;;;;;27.45;12.82;;;;;;;;;;4989043;28;25154;-75
2023/04/30 02:56:50;;;;;;;21.42;12.23;;;;;;;;;;4977050;28;25062;-78
2023/04/30 02:59:16;;;;;;;20.85;12.02;;;;;;;;;;4978583;28;25073;-78
2023/04/30 03:01:42;;;;;;;22.55;11.27;;;;;;;;;;4979825;28;25059;-76
2023/04/30 03:04:08;;;;;;;18.73;10.48;;;;;;;;;;4982552;28;25083;-75
2023/04/30 03:06:34;;;;;;;21.23;11.40;;;;;;;;;;4977510;28;25076;-77
2023/04/30 03:09:00;;;;;;;25.05;11.15;;;;;;;;;;4978077;28;25080;-75
2023/04/30 03:11:27;;;;;;;22.58;12.23;;;;;;;;;;4979245;28;25063;-77
2023/04/30 03:13:53;;;;;;;23.77;11.80;;;;;;;;;;4984540;28;25067;-76
2023/04/30 03:16:19;;;;;;;22.08;12.05;;;;;;;;;;4976228;28;25127;-76
2023/04/30 03:18:46;;;;;;;23.98;12.90;;;;;;;;;;4974470;28;25079;-78
2023/04/30 03:21:12;;;;;;;22.83;12.05;;;;;;;;;;4975359;28;25069;-76
2023/04/30 03:23:38;;;;;;;25.63;12.00;;;;;;;;;;4978427;28;25101;-77
2023/04/30 03:26:04;;;;;;;19.65;11.20;;;;;;;;;;4978325;28;25081;-76
2023/04/30 03:28:30;;;;;;;25.83;12.52;;;;;;;;;;4969052;28;25085;-78
2023/04/30 03:30:58;;;;;;;23.92;12.77;;;;;;;;;;4975237;28;25061;-77
2023/04/30 03:33:24;;;;;;;21.00;12.13;;;;;;;;;;4972752;28;25070;-77
2023/04/30 03:35:50;;;;;;;24.92;12.55;;;;;;;;;;4971536;28;25090;-77
2023/04/30 03:38:16;;;;;;;30.13;13.57;;;;;;;;;;4981235;28;25064;-76
2023/04/30 03:40:42;;;;;;;26.50;12.98;;;;;;;;;;4984651;28;25053;-77
2023/04/30 03:43:08;;;;;;;23.75;12.68;;;;;;;;;;4964296;28;25067;-77
2023/04/30 03:45:35;;;;;;;24.17;11.98;;;;;;;;;;4971355;28;25111;-77
2023/04/30 03:48:01;;;;;;;23.75;13.35;;;;;;;;;;4977351;28;25072;-77
2023/04/30 03:50:27;;;;;;;23.02;12.77;;;;;;;;;;4981485;28;25078;-76
2023/04/30 03:52:52;;;;;;;26.02;13.30;;;;;;;;;;4979633;28;25092;-76
2023/04/30 03:55:18;;;;;;;24.58;12.05;;;;;;;;;;4976974;28;25075;-77
2023/04/30 03:57:44;;;;;;;24.38;12.82;;;;;;;;;;4980368;28;25067;-77
2023/04/30 04:00:12;;;;;;;21.92;12.20;;;;;;;;;;4983187;28;25118;-78
2023/04/30 04:02:38;;;;;;;21.92;11.65;;;;;;;;;;4984666;28;25144;-77
2023/04/30 04:05:04;;;;;;;25.60;12.48;;;;;;;;;;4980994;28;25081;-77
2023/04/30 04:07:30;;;;;;;22.73;12.63;;;;;;;;;;4979469;28;25085;-78
2023/04/30 04:09:58;;;;;;;29.70;13.70;;;;;;;;;;5012361;28;25069;-77
2023/04/30 04:12:23;;;;;;;24.27;12.30;;;;;;;;;;4989998;28;25087;-77
2023/04/30 04:14:49;;;;;;;22.02;12.77;;;;;;;;;;4994424;28;25058;-75
2023/04/30 04:17:15;;;;;;;24.15;13.18;;;;;;;;;;4978311;28;25084;-76
2023/04/30 04:19:41;;;;;;;24.02;11.95;;;;;;;;;;4995931;28;25050;-77
2023/04/30 04:22:07;;;;;;;27.17;12.80;;;;;;;;;;4993345;28;25045;-77
2023/04/30 04:24:34;;;;;;;24.80;12.45;;;;;;;;;;4979854;28;25060;-78
2023/04/30 04:27:01;;;;;;;19.20;12.15;;;;;;;;;;4976564;28;25052;-77
2023/04/30 04:29:28;;;;;;;23.17;12.70;;;;;;;;;;4969474;28;25091;-76
2023/04/30 04:31:54;;;;;;;23.98;12.63;;;;;;;;;;4974921;28;25105;-77
2023/04/30 04:34:20;;;;;;;20.92;11.95;;;;;;;;;;4980164;28;25083;-78
2023/04/30 04:36:46;;;;;;;20.10;10.68;;;;;;;;;;4981987;28;25072;-78
2023/04/30 04:39:13;;;;;;;20.55;11.07;;;;;;;;;;4970892;28;25084;-77
2023/04/30 04:41:40;;;;;;;25.23;12.23;;;;;;;;;;4981855;28;25120;-76
2023/04/30 04:44:06;;;;;;;21.35;10.77;;;;;;;;;;4972893;28;25047;-76
2023/04/30 04:46:32;;;;;;;23.52;11.30;;;;;;;;;;5005516;28;25066;-77
2023/04/30 04:48:58;;;;;;;23.33;11.77;;;;;;;;;;4985420;28;25135;-76
2023/04/30 04:51:25;;;;;;;19.08;11.05;;;;;;;;;;4973716;28;25085;-76
2023/04/30 04:53:51;;;;;;;21.23;10.30;;;;;;;;;;4997210;28;25077;-77
2023/04/30 04:56:17;;;;;;;14.98;8.80;;;;;;;;;;4973938;28;25102;-76
2023/04/30 04:58:44;;;;;;;16.35;9.55;;;;;;;;;;4967965;28;25081;-76
2023/04/30 05:01:10;;;;;;;18.52;9.88;;;;;;;;;;4969913;28;25067;-76
2023/04/30 05:03:36;;;;;;;19.35;9.20;;;;;;;;;;4975916;28;25062;-76
2023/04/30 05:06:05;;;;;;;17.00;9.45;;;;;;;;;;4980403;28;25069;-76
2023/04/30 05:08:31;;;;;;;20.20;9.70;;;;;;;;;;4970704;28;25080;-76
2023/04/30 05:10:57;;;;;;;16.85;8.95;;;;;;;;;;4973244;28;25139;-77
2023/04/30 05:13:25;;;;;;;16.95;9.70;;;;;;;;;;4965443;28;25076;-76
2023/04/30 05:15:51;;;;;;;15.18;9.57;;;;;;;;;;4973246;28;25053;-77
2023/04/30 05:18:17;;;;;;;15.73;9.65;;;;;;;;;;4972224;28;25107;-76
2023/04/30 05:20:43;;;;;;;26.67;9.45;;;;;;;;;;4966355;28;25121;-77
2023/04/30 05:23:15;;;;;;;15.75;9.00;;;;;;;;;;4973078;28;25135;-78
2023/04/30 05:25:41;;;;;;;14.50;8.15;;;;;;;;;;4971806;28;25066;-76
2023/04/30 05:28:07;;;;;;;15.10;9.05;;;;;;;;;;4978679;28;25068;-76
2023/04/30 05:30:33;;;;;;;14.40;8.55;;;;;;;;;;4995443;28;25056;-77
2023/04/30 05:32:59;;;;;;;16.48;9.30;;;;;;;;;;4975138;28;25072;-76
2023/04/30 05:35:25;;;;;;;16.80;9.23;;;;;;;;;;4974307;28;25134;-77
2023/04/30 05:37:51;;;;;;;15.77;9.93;;;;;;;;;;4980140;28;25065;-76
2023/04/30 05:40:17;;;;;;;14.10;8.38;;;;;;;;;;4976471;28;25064;-76
2023/04/30 05:42:43;;;;;;;17.08;9.13;;;;;;;;;;4985915;28;25068;-78
2023/04/30 05:45:11;;;;;;;18.13;9.40;;;;;;;;;;4979316;28;25102;-77
2023/04/30 05:47:37;;;;;;;15.02;8.77;;;;;;;;;;4992107;28;25091;-77
2023/04/30 05:50:03;;;;;;;15.35;9.32;;;;;;;;;;4973535;28;25121;-76
2023/04/30 05:52:29;;;;;;;15.68;8.93;;;;;;;;;;4973243;28;25072;-74
2023/04/30 05:54:55;;;;;;;15.52;8.52;;;;;;;;;;4959733;28;25149;-77
2023/04/30 05:57:21;;;;;;;15.20;8.30;;;;;;;;;;4975981;28;25070;-76
2023/04/30 05:59:47;;;;;;;19.80;7.93;;;;;;;;;;4975137;28;25078;-76
2023/04/30 06:02:13;;;;;;;16.55;7.88;;;;;;;;;;4973432;28;25071;-78
2023/04/30 06:04:39;;;;;;;17.13;8.82;;;;;;;;;;4979247;28;25048;-78
2023/04/30 06:07:05;;;;;;;12.70;7.32;;;;;;;;;;4967768;28;25060;-78
2023/04/30 06:09:31;;;;;;;19.77;8.68;;;;;;;;;;4970711;28;25060;-78
2023/04/30 06:11:57;;;;;;;12.20;8.02;;;;;;;;;;4965720;28;25059;-76
2023/04/30 06:14:24;;;;;;;14.05;8.55;;;;;;;;;;4972203;28;25084;-78
2023/04/30 06:16:50;;;;;;;12.10;8.05;;;;;;;;;;4965302;28;25072;-77
2023/04/30 06:19:16;;;;;;;15.02;8.32;;;;;;;;;;4971582;28;25101;-77
2023/04/30 06:21:42;;;;;;;15.20;8.57;;;;;;;;;;4974025;28;25081;-76
2023/04/30 06:24:09;;;;;;;17.40;8.82;;;;;;;;;;4981292;28;25061;-77
2023/04/30 06:26:35;;;;;;;11.68;7.80;;;;;;;;;;4968615;28;25061;-77
2023/04/30 06:29:01;;;;;;;18.77;8.38;;;;;;;;;;4970447;28;25078;-77
2023/04/30 06:31:27;;;;;;;13.43;7.68;;;;;;;;;;4971271;28;25053;-76
2023/04/30 06:33:54;;;;;;;15.15;8.32;;;;;;;;;;4973088;28;25110;-76
2023/04/30 06:36:20;;;;;;;13.98;8.18;;;;;;;;;;4974390;28;25071;-77
2023/04/30 06:38:46;;;;;;;14.63;8.25;;;;;;;;;;4981524;28;25060;-77
2023/04/30 06:41:13;;;;;;;12.70;7.55;;;;;;;;;;4969120;28;25066;-76
2023/04/30 06:43:39;;;;;;;16.42;8.70;;;;;;;;;;4973393;28;25148;-77
2023/04/30 06:46:05;;;;;;;14.43;8.73;;;;;;;;;;4970399;28;25098;-78
2023/04/30 06:48:32;;;;;;;9.65;6.40;;;;;;;;;;4970342;28;25069;-77
2023/04/30 06:50:58;;;;;;;16.67;8.95;;;;;;;;;;4969630;28;25062;-77
2023/04/30 06:53:25;;;;;;;14.35;8.40;;;;;;;;;;4975056;28;25066;-78
2023/04/30 06:55:51;;;;;;;13.52;7.75;;;;;;;;;;4977198;28;25081;-77
2023/04/30 06:58:20;;;;;;;14.60;8.25;;;;;;;;;;4979751;28;25055;-76
2023/04/30 07:00:45;;;;;;;12.30;7.53;;;;;;;;;;4966532;28;25154;-77
2023/04/30 07:03:12;;;;;;;11.93;7.22;;;;;;;;;;4971292;28;25077;-76
2023/04/30 07:05:38;;;;;;;12.02;7.55;;;;;;;;;;4973759;28;25052;-76
2023/04/30 07:08:06;;;;;;;11.50;7.50;;;;;;;;;;4970514;28;25069;-75
2023/04/30 07:10:32;;;;;;;11.48;7.53;;;;;;;;;;4972764;28;25071;-77
2023/04/30 07:12:58;;;;;;;12.20;7.32;;;;;;;;;;4979114;28;25063;-75
2023/04/30 07:15:24;;;;;;;14.98;7.72;;;;;;;;;;4980129;28;25158;-78
2023/04/30 07:17:50;;;;;;;13.10;7.35;;;;;;;;;;4974833;28;25059;-77
2023/04/30 07:20:16;;;;;;;13.55;7.82;;;;;;;;;;4994151;28;25062;-79
2023/04/30 07:22:44;;;;;;;19.27;7.85;;;;;;;;;;4950282;28;1067407;-77
2023/04/30 07:25:10;;;;;;;12.30;8.30;;;;;;;;;;4972500;28;25102;-78
2023/04/30 07:27:36;;;;;;;16.08;8.35;;;;;;;;;;4985595;28;25049;-77
2023/04/30 07:30:03;;;;;;;14.30;7.85;;;;;;;;;;4984517;28;25064;-77
2023/04/30 07:32:29;;;;;;;16.25;8.23;;;;;;;;;;4983131;28;25104;-77
2023/04/30 07:34:55;;;;;;;12.05;7.75;;;;;;;;;;4983620;28;25056;-78
2023/04/30 07:37:21;;;;;;;15.68;9.00;;;;;;;;;;4992721;28;25079;-78
2023/04/30 07:39:47;;;;;;;11.05;7.57;;;;;;;;;;4987050;28;25078;-77
2023/04/30 07:42:13;;;;;;;12.05;7.35;;;;;;;;;;4978464;28;25109;-76
2023/04/30 07:44:40;;;;;;;13.20;9.35;;;;;;;;;;4984139;28;25058;-77
2023/04/30 07:47:06;;;;;;;15.13;8.10;;;;;;;;;;4976215;28;25068;-80
2023/04/30 07:49:32;;;;;;;15.63;7.90;;;;;;;;;;4975337;28;25054;-78
2023/04/30 07:51:59;;;;;;;15.30;8.55;;;;;;;;;;4973090;28;25093;-78
2023/04/30 07:54:26;;;;;;;15.85;8.40;;;;;;;;;;4970022;28;25062;-79
2023/04/30 07:56:51;;;;;;;13.13;7.60;;;;;;;;;;4969889;28;25045;-77
2023/04/30 07:59:17;;;;;;;14.40;7.97;;;;;;;;;;4979753;28;25062;-77
2023/04/30 08:01:44;;;;;;;11.15;7.95;;;;;;;;;;4982742;28;25105;-76
2023/04/30 08:04:11;;;;;;;11.55;8.23;;;;;;;;;;5002382;28;25063;-74
2023/04/30 08:06:37;;;;;;;14.45;7.28;;;;;;;;;;4995830;28;25073;-76
2023/04/30 08:09:03;;;;;;;12.50;8.05;;;;;;;;;;4991977;28;25053;-75
2023/04/30 08:11:29;;;;;;;11.02;8.20;;;;;;;;;;4987967;28;25093;-76
2023/04/30 08:13:55;;;;;;;14.20;7.90;;;;;;;;;;4978278;28;25155;-78
2023/04/30 08:16:21;;;;;;;13.73;8.60;;;;;;;;;;4974551;28;25096;-78
2023/04/30 08:18:48;;;;;;;14.13;7.90;;;;;;;;;;4978452;28;25063;-75
2023/04/30 08:21:15;;;;;;;13.57;7.82;;;;;;;;;;4990128;28;25068;-75
2023/04/30 08:23:41;;;;;;;11.25;7.38;;;;;;;;;;4996960;28;25085;-74
2023/04/30 08:26:12;;;;;;;15.40;9.32;;;;;;;;;;4987129;28;25057;-74
2023/04/30 08:28:38;;;;;;;11.80;7.75;;;;;;;;;;4974300;28;25112;-79
2023/04/30 08:31:04;;;;;;;10.48;7.03;;;;;;;;;;4975515;28;25093;-76
2023/04/30 08:33:30;;;;;;;12.38;7.43;;;;;;;;;;4967086;28;25055;-75
2023/04/30 08:35:58;;;;;;;11.30;7.07;;;;;;;;;;4964800;28;25089;-77
2023/04/30 08:38:25;;;;;;;15.00;7.00;;;;;;;;;;4975494;28;25181;-79
2023/04/30 08:41:10;;;;;;;11.98;7.72;;;;;;;;;;4975220;28;25114;-77
2023/04/30 08:43:36;;;;;;;10.30;6.60;;;;;;;;;;4970704;28;25057;-77
2023/04/30 08:46:04;;;;;;;10.15;6.32;;;14.60;99.90;;;;;;4976139;28;25065;-77
2023/04/30 08:48:30;;;;;;;9.75;5.88;;;;;;;;;;4975938;28;25061;-76
2023/04/30 08:51:00;;;;;;;9.80;5.72;;;;;;;;;;4974306;28;25071;-77
2023/04/30 08:53:31;;;;;;;9.80;6.03;;;;;;;;;;4981664;28;25050;-78
2023/04/30 08:55:57;;;;;;;8.18;5.90;;;;;;;;;;4989286;28;25059;-76
2023/04/30 08:58:23;;;;;;;8.48;5.03;;;;;;;;;;4971262;28;25135;-78
2023/04/30 09:00:49;;;;;;;9.82;5.93;;;;;;;;;;4964176;28;25180;-76
2023/04/30 09:03:15;;;;;;;7.93;5.60;;;;;;;;;;4970206;28;25095;-76
2023/04/30 09:05:41;;;;;;;7.68;6.03;;;;;;;;;;4974277;28;25066;-77
2023/04/30 09:08:08;;;;;;;8.48;5.90;;;;;;;;;;4970514;28;25119;-78
2023/04/30 09:10:34;;;;;;;8.20;5.78;;;;;;;;;;4973710;28;25089;-77
2023/04/30 09:13:01;;;;;;;8.65;5.63;;;;;;;;;;4973119;28;25144;-75
2023/04/30 09:15:27;;;;;;;11.25;5.85;;;;;;;;;;4968724;28;25055;-76
2023/04/30 09:18:07;;;;;;;9.95;6.38;;;;;;;;;;4973611;28;25111;-79
2023/04/30 09:20:34;;;;;;;8.20;5.80;;;;;;;;;;4978250;28;25156;-77
2023/04/30 09:23:11;;;;;;;6.30;4.93;;;;;;;;;;4968650;28;25075;-77
2023/04/30 09:25:39;;;;;;;6.95;4.78;;;;;;;;;;4971297;28;25066;-75
2023/04/30 09:28:11;;;;;;;7.03;5.63;;;;;;;;;;4964197;28;25090;-77
2023/04/30 09:30:37;;;;;;;;;;;;;;;;;;4971667;28;25084;-75
2023/04/30 09:33:03;;;;;;;8.25;4.75;;;;;;;;;;4965422;28;25094;-77
2023/04/30 09:35:30;;;;;;;8.88;4.75;;;;;;;;;;4988741;28;25114;-76
2023/04/30 09:37:56;;;;;;;9.73;5.50;;;;;;;;;;4970024;28;25159;-79
2023/04/30 09:40:32;;;;;;;7.05;5.45;;;;;;;;;;4968392;28;25100;-76
2023/04/30 09:42:58;;;;;;;7.07;5.10;;;;;;;;;;4964559;28;25080;-76
2023/04/30 09:45:24;;;;;;;7.22;4.85;;;;;;;;;;4974026;28;25080;-76
2023/04/30 09:47:52;;;;;;;7.25;5.28;;;;;;;;;;4975808;28;25104;-76
2023/04/30 09:50:18;;;;;;;12.50;7.15;;;;;;;;;;4966271;28;25060;-76
2023/04/30 09:52:53;;;;;;;10.50;6.97;;;;;;;;;;4961304;28;25076;-77
2023/04/30 09:55:20;;;;;;;11.23;5.90;;;;;;;;;;4964969;28;25065;-76
2023/04/30 09:57:49;;;;;;;9.43;5.47;;;;;;;;;;4967657;28;25103;-77
2023/04/30 10:00:15;;;;;;;8.25;5.35;;;;;;;;;;4964851;28;25078;-77
2023/04/30 10:02:41;;;;;;;9.45;5.68;;;;;;;;;;4969828;28;25059;-77
2023/04/30 10:05:08;;;;;;;7.38;5.63;;;;;;;;;;4962417;28;25065;-75
2023/04/30 10:07:35;;;;;;;6.47;4.90;;;;;;;;;;4974284;28;25165;-76
2023/04/30 10:10:09;;;;;;;8.75;5.25;;;;;;;;;;4965586;28;25106;-76
2023/04/30 10:12:52;;;;;;;7.20;5.55;;;;;;;;;;4960609;28;24982;-77
2023/04/30 10:15:24;;;;;;;9.43;5.88;;;;;;;;;;4971809;28;25060;-77
2023/04/30 10:17:57;;;;;;;6.47;4.68;;;;;;;;;;4974012;28;25067;-76
2023/04/30 10:20:24;;;;;;;9.05;5.57;;;;;;;;;;4973128;28;25057;-76
2023/04/30 10:22:51;;;;;;;7.03;5.13;;;;;;;;;;4985732;28;25062;-74
2023/04/30 10:25:17;;;;;;;7.75;4.50;;;;;;;;;;4989549;28;25078;-75
2023/04/30 10:27:43;;;;;;;10.50;5.15;;;;;;;;;;4988361;28;25182;-78
2023/04/30 10:30:10;;;;;;;7.57;4.93;;;;;;;;;;4974216;28;25102;-78
2023/04/30 10:32:52;;;;;;;8.10;5.90;;;;;;;;;;4969067;28;25058;-79
2023/04/30 10:35:30;;;;;;;9.25;5.32;;;;;;;;;;4964331;28;25147;-77
2023/04/30 10:38:03;;;;;;;7.43;4.95;;;;;;;;;;4964487;28;25066;-78
2023/04/30 10:40:28;;;;;;;6.65;4.75;;;;;;;;;;4968860;28;25098;-76
2023/04/30 10:42:55;;;;;;;8.52;4.45;;;;;;;;;;4965701;28;25027;-76
2023/04/30 10:45:36;;;;;;;9.93;5.75;;;;;;;;;;4964535;28;25104;-77
2023/04/30 10:48:03;;;;;;;8.82;5.13;;;;;;;;;;4975243;28;25073;-76
2023/04/30 10:50:29;;;;;;;7.43;4.85;;;;;;;;;;4977629;28;25081;-76
2023/04/30 10:53:06;;;;;;;10.18;5.55;;;;;;;;;;4985205;28;25075;-75
2023/04/30 10:55:32;;;;;;;6.47;5.03;;;;;;;;;;4978491;28;25082;-76
2023/04/30 10:57:58;;;;;;;8.02;5.57;;;;;;;;;;5006560;28;25105;-74
2023/04/30 11:00:26;;;;;;;7.32;4.88;;;;;;;;;;5001741;28;25068;-75
2023/04/30 11:02:55;;;;;;;6.13;4.47;;;;;;;;;;4968731;28;25143;-77
2023/04/30 11:05:32;;;;;;;7.45;5.75;;;;;;;;;;4967411;28;25173;-78
2023/04/30 11:07:58;;;;;;;7.53;5.40;;;;;;;;;;4974180;28;25063;-77
2023/04/30 11:10:27;;;;;;;9.55;4.65;;;;;;;;;;4968253;28;25053;-76
2023/04/30 11:12:54;;;;;;;6.70;4.55;;;;;;;;;;4972220;28;25049;-76
2023/04/30 11:15:22;;;;;;;8.05;4.65;;;;;;;;;;4970616;28;25083;-77
2023/04/30 11:17:48;;;;;;;5.70;4.82;;;;;;;;;;4976407;28;25061;-77
2023/04/30 11:20:18;;;;;;;5.25;4.13;;;;;;;;;;4971945;28;25152;-74
2023/04/30 11:22:45;;;;;;;7.47;4.35;;;;;;;;;;4974402;28;25101;-76
2023/04/30 11:25:12;;;;;;;5.07;4.43;;;;;;;;;;4972875;28;25162;-77
2023/04/30 11:27:43;;;;;;;8.80;5.60;;;;;;;;;;4976445;28;25099;-77
2023/04/30 11:30:10;;;;;;;10.73;5.50;;;;;;;;;;4969531;28;25084;-75
2023/04/30 11:32:37;;;;;;;6.93;5.47;;;;;;;;;;4975059;28;25071;-75
2023/04/30 11:35:04;;;;;;;7.00;5.57;;;;;;;;;;4974458;28;25059;-77
2023/04/30 11:37:31;;;;;;;6.03;4.80;;;;;;;;;;4971023;28;25057;-77
2023/04/30 11:39:59;;;;;;;8.05;5.72;;;;;;;;;;4972846;28;25060;-77
2023/04/30 11:42:25;;;;;;;9.10;5.32;;;;;;;;;;4978288;28;25084;-79
2023/04/30 11:44:51;;;;;;;8.85;4.97;;;;;;;;;;4972377;28;25058;-78
2023/04/30 11:47:17;;;;;;;5.80;4.40;;;;;;;;;;4987484;28;25058;-77
2023/04/30 11:49:43;;;;;;;8.60;5.00;;;;;;;;;;4983088;28;25060;-77
2023/04/30 11:52:09;;;;;;;7.45;5.45;;;;;;;;;;4972785;28;25053;-74
2023/04/30 11:54:37;;;;;;;8.13;5.68;;;;;;;;;;4970097;28;25061;-78
2023/04/30 11:57:03;;;;;;;9.15;6.32;;;;;;;;;;4968985;28;25051;-76
2023/04/30 11:59:30;;;;;;;7.85;5.60;;;;;;;;;;4974533;28;25105;-77
2023/04/30 12:01:57;;;;;;;8.90;5.93;;;;;;;;;;4966916;28;25156;-77
2023/04/30 12:04:23;;;;;;;8.10;5.82;;;;;;;;;;4962808;28;25057;-75
2023/04/30 12:06:49;;;;;;;8.30;6.05;;;;;;;;;;4972165;28;25078;-76
2023/04/30 12:09:15;;;;;;;8.18;5.28;;;;;;;;;;4971529;28;25067;-74
2023/04/30 12:11:41;;;;;;;7.03;4.97;;;;;;;;;;4967483;28;25058;-77
2023/04/30 12:14:11;;;;;;;5.97;4.32;;;;;;;;;;4974857;28;25066;-75
2023/04/30 12:16:44;;;;;;;6.65;4.93;;;;;;;;;;4978398;28;25144;-75
2023/04/30 12:19:12;;;;;;;4.85;4.00;;;;;;;;;;4982424;28;25081;-74
2023/04/30 12:21:40;;;;;;;4.50;3.80;;;;;;;;;;4988943;28;25058;-76
2023/04/30 12:24:07;;;;;;;6.25;3.63;;;;;;;;;;4986900;28;25144;-74
2023/04/30 12:26:39;;;;;;;4.13;2.70;;;;;;;;;;4988485;28;25055;-77
2023/04/30 12:29:08;;;;;;;3.88;3.08;;;;;;;;;;4982209;28;25087;-73
2023/04/30 12:31:36;;;;;;;2.78;2.35;;;;;;;;;;4984764;28;25081;-78
2023/04/30 12:34:07;;;;;;;3.25;2.67;;;;;;;;;;4986151;28;25065;-75
2023/04/30 12:36:35;;;;;;;4.07;3.13;;;;;;;;;;4982899;28;25093;-77
2023/04/30 12:39:07;;;;;;;3.63;2.78;;;;;;;;;;4995116;28;25161;-76
2023/04/30 12:41:40;;;;;;;4.30;3.30;;;;;;;;;;4983468;28;25084;-76
2023/04/30 12:44:15;;;;;;;3.90;3.08;;;;;;;;;;4986126;28;25042;-72
2023/04/30 12:46:41;;;;;;;4.80;3.30;;;;;;;;;;4988796;28;25098;-73
2023/04/30 12:49:07;;;;;;;5.53;2.70;;;;;;;;;;4982430;28;25065;-75
2023/04/30 12:51:39;;;;;;;4.72;2.92;;;;;;;;;;4983774;28;25086;-77
2023/04/30 12:54:05;;;;;;;6.30;3.70;;;;;;;;;;5000899;28;25048;-76
2023/04/30 12:56:31;;;;;;;6.32;3.88;;;;;;;;;;4990035;28;25064;-75
2023/04/30 12:58:57;;;;;;;5.07;3.42;;;;;;;;;;4992079;28;25087;-77
2023/04/30 13:01:24;;;;;;;5.75;3.70;;;;;;;;;;4992841;28;25046;-75
2023/04/30 13:03:50;;;;;;;5.95;3.58;;;;;;;;;;4987578;28;25072;-74
2023/04/30 13:06:16;;;;;;;3.53;3.17;;;;;;;;;;4982669;28;25058;-73
2023/04/30 13:08:43;;;;;;;4.28;3.22;;;;;;;;;;4988939;28;25067;-74
2023/04/30 13:11:10;;;;;;;6.28;3.33;;;;;;;;;;4989347;28;25079;-76
2023/04/30 13:13:36;;;;;;;4.38;3.58;;;;;;;;;;4994220;28;25057;-74
2023/04/30 13:16:05;;;;;;;4.55;3.47;;;;;;;;;;5000045;28;25125;-75
2023/04/30 13:18:31;;;;;;;6.07;3.70;;;;;;;;;;4983307;28;25096;-74
2023/04/30 13:20:57;;;;;;;8.35;4.43;;;;;;;;;;4995494;28;25161;-75
2023/04/30 13:23:23;;;;;;;4.82;3.13;;;;;;;;;;4975434;28;25049;-76
2023/04/30 13:25:49;;;;;;;4.90;3.13;;;;;;;;;;4995156;28;25059;-76
2023/04/30 13:28:15;;;;;;;5.00;3.45;;;;;;;;;;4978504;28;25078;-75
2023/04/30 13:30:41;;;;;;;5.75;2.90;;;;;;;;;;4982690;28;25103;-77
2023/04/30 13:33:08;;;;;;;4.55;3.10;;;;;;;;;;4972788;28;25059;-75
2023/04/30 13:35:34;;;;;;;4.28;3.13;;;;;;;;;;4974642;28;25056;-75
2023/04/30 13:38:00;;;;;;;5.38;3.33;;;;;;;;;;4967096;28;25058;-76
2023/04/30 13:40:26;;;;;;;3.75;3.00;;;;;;;;;;4966570;28;25048;-77
2023/04/30 13:42:52;;;;;;;6.53;3.47;;;;;;;;;;4965128;28;25067;-77
2023/04/30 13:45:18;;;;;;;3.97;3.30;;;;;;;;;;4967157;28;25066;-75
2023/04/30 13:47:44;;;;;;;5.15;3.05;;;;;;;;;;4969382;28;25105;-76
2023/04/30 13:50:10;;;;;;;4.57;3.25;;;;;;;;;;4975837;28;25064;-74
2023/04/30 13:52:36;;;;;;;4.60;3.15;;;;;;;;;;4993596;28;25090;-73
2023/04/30 13:55:04;;;;;;;7.90;3.70;;;;;;;;;;5001358;28;25062;-75
2023/04/30 13:57:32;;;;;;;5.75;3.05;;;;;;;;;;4986004;28;24985;-77
2023/04/30 13:59:58;;;;;;;6.82;2.05;;;;;;;;;;4980439;28;25131;-73
2023/04/30 14:02:26;;;;;;;2.47;1.80;;;;;;;;;;4987042;28;25062;-74
2023/04/30 14:04:52;;;;;;;3.22;2.20;;;;;;;;;;4992349;28;25527;-74
2023/04/30 14:07:18;;;;;;;6.35;3.63;;;;;;;;;;4976554;28;25090;-74
2023/04/30 14:09:44;;;;;;;5.57;3.10;;;;;;;;;;4978526;28;25072;-75
2023/04/30 14:12:10;;;;;;;3.08;2.55;;;;;;;;;;4977755;28;25077;-76
2023/04/30 14:14:36;;;;;;;5.30;3.15;;;;;;;;;;4974731;28;25073;-76
2023/04/30 14:17:03;;;;;;;4.13;2.60;;;;;;;;;;4979386;28;25089;-76
2023/04/30 14:19:29;;;;;;;4.50;1.98;;;;;;;;;;4973974;28;25060;-77
2023/04/30 14:21:56;;;;;;;4.20;2.30;;;;;;;;;;4974912;28;25067;-76
2023/04/30 14:24:22;;;;;;;4.00;1.90;;;;;;;;;;4962529;28;25057;-76
2023/04/30 14:26:48;;;;;;;3.47;2.47;;;;;;;;;;4963567;28;25077;-77
2023/04/30 14:29:14;;;;;;;2.90;2.10;;;;;;;;;;4978645;28;25069;-77
2023/04/30 14:31:40;;;;;;;4.15;2.92;;;;;;;;;;4965513;28;25061;-76